createdAt,value
2022-08-18T00:01:14.872Z,21.10
2022-08-18T00:03:56.551Z,21.10
2022-08-18T00:06:30.209Z,21.10
2022-08-18T00:09:03.999Z,21.00
2022-08-18T00:11:41.007Z,21.20
2022-08-18T00:14:21.607Z,21.00
2022-08-18T00:16:52.115Z,21.00
2022-08-18T00:19:19.568Z,21.00
2022-08-18T00:21:46.679Z,20.90
2022-08-18T00:24:13.974Z,20.90
2022-08-18T00:26:46.930Z,20.90
2022-08-18T00:29:18.488Z,20.90
2022-08-18T00:31:48.537Z,21.00
2022-08-18T00:34:15.677Z,21.00
2022-08-18T00:36:43.462Z,20.90
2022-08-18T00:39:10.587Z,20.90
2022-08-18T00:41:37.797Z,20.80
2022-08-18T00:44:05.107Z,20.80
2022-08-18T00:46:35.941Z,20.70
2022-08-18T00:49:04.353Z,20.80
2022-08-18T00:51:43.349Z,20.70
2022-08-18T00:54:18.665Z,20.70
2022-08-18T00:56:50.356Z,20.70
2022-08-18T00:59:31.292Z,20.70
2022-08-18T01:02:02.645Z,20.60
2022-08-18T01:04:29.624Z,20.60
2022-08-18T01:07:01.602Z,20.60
2022-08-18T01:09:29.165Z,20.60
2022-08-18T01:11:56.737Z,20.60
2022-08-18T01:14:24.608Z,20.50
2022-08-18T01:17:10.403Z,20.50
2022-08-18T01:19:56.479Z,20.40
2022-08-18T01:22:47.782Z,20.40
2022-08-18T01:25:35.196Z,20.40
2022-08-18T01:28:03.796Z,20.40
2022-08-18T01:30:44.133Z,20.40
2022-08-18T01:33:12.378Z,20.40
2022-08-18T01:35:43.218Z,20.40
2022-08-18T01:38:11.518Z,20.40
2022-08-18T01:41:22.242Z,20.40
2022-08-18T01:43:26.653Z,20.40
2022-08-18T01:45:53.964Z,20.40
2022-08-18T01:48:21.373Z,20.30
2022-08-18T01:50:49.959Z,20.30
2022-08-18T01:53:18.943Z,20.30
2022-08-18T01:55:46.133Z,20.30
2022-08-18T01:58:13.169Z,20.20
2022-08-18T02:00:42.151Z,20.20
2022-08-18T02:03:12.905Z,20.20
2022-08-18T02:05:44.793Z,20.20
2022-08-18T02:08:15.500Z,20.20
2022-08-18T02:10:43.049Z,20.10
2022-08-18T02:13:12.978Z,20.00
2022-08-18T02:15:41.910Z,20.10
2022-08-18T02:18:43.536Z,20.10
2022-08-18T02:21:10.165Z,20.00
2022-08-18T02:23:37.660Z,20.00
2022-08-18T02:26:09.715Z,20.00
2022-08-18T02:28:37.176Z,20.00
2022-08-18T02:31:11.350Z,19.90
2022-08-18T02:33:38.953Z,19.90
2022-08-18T02:36:12.478Z,19.90
2022-08-18T02:38:41.102Z,19.90
2022-08-18T02:41:12.321Z,19.90
2022-08-18T02:43:42.116Z,19.90
2022-08-18T02:46:10.225Z,19.90
2022-08-18T02:48:37.362Z,19.80
2022-08-18T02:51:09.495Z,19.80
2022-08-18T02:53:37.701Z,19.70
2022-08-18T02:56:40.327Z,19.70
2022-08-18T02:59:24.180Z,19.80
2022-08-18T03:01:55.132Z,19.80
2022-08-18T03:04:29.532Z,19.80
2022-08-18T03:07:00.724Z,19.70
2022-08-18T03:09:29.323Z,19.70
2022-08-18T03:11:56.868Z,19.70
2022-08-18T03:14:24.440Z,19.70
2022-08-18T03:16:53.587Z,19.70
2022-08-18T03:19:24.677Z,19.70
2022-08-18T03:21:52.810Z,19.70
2022-08-18T03:24:22.874Z,19.70
2022-08-18T03:26:52.733Z,19.70
2022-08-18T03:29:20.624Z,19.60
2022-08-18T03:31:48.705Z,19.70
2022-08-18T03:34:19.853Z,19.70
2022-08-18T03:36:49.996Z,19.70
2022-08-18T03:39:18.945Z,19.70
2022-08-18T03:41:59.233Z,19.90
2022-08-18T03:44:31.126Z,19.80
2022-08-18T03:47:00.228Z,19.90
2022-08-18T03:49:27.332Z,19.90
2022-08-18T03:51:54.883Z,20.00
2022-08-18T03:54:22.726Z,20.10
2022-08-18T03:56:49.968Z,20.20
2022-08-18T03:59:23.146Z,20.30
2022-08-18T04:01:52.603Z,20.40
2022-08-18T04:04:24.468Z,20.50
2022-08-18T04:06:54.921Z,20.60
2022-08-18T04:09:24.561Z,20.80
2022-08-18T04:11:52.068Z,20.90
2022-08-18T04:14:24.915Z,21.00
2022-08-18T04:16:53.150Z,21.10
2022-08-18T04:19:22.706Z,21.50
2022-08-18T04:21:56.963Z,22.30
2022-08-18T04:24:26.562Z,23.20
2022-08-18T04:26:57.337Z,24.10
2022-08-18T04:29:24.852Z,24.90
2022-08-18T04:31:53.089Z,25.70
2022-08-18T04:34:22.879Z,26.40
2022-08-18T04:36:54.072Z,27.10
2022-08-18T04:39:22.919Z,27.80
2022-08-18T04:41:50.745Z,28.20
2022-08-18T04:44:18.253Z,28.50
2022-08-18T04:46:48.182Z,29.10
2022-08-18T04:49:17.238Z,29.90
2022-08-18T04:52:36.411Z,30.70
2022-08-18T04:54:53.789Z,31.40
2022-08-18T04:57:22.989Z,32.40
2022-08-18T04:59:52.195Z,32.90
2022-08-18T05:02:21.285Z,33.40
2022-08-18T05:04:48.616Z,33.90
2022-08-18T05:07:19.187Z,34.20
2022-08-18T05:09:47.025Z,34.50
2022-08-18T05:12:15.988Z,34.50
2022-08-18T05:14:44.754Z,34.80
2022-08-18T05:17:14.096Z,35.00
2022-08-18T05:19:44.618Z,35.30
2022-08-18T05:22:19.516Z,35.50
2022-08-18T05:24:55.495Z,36.00
2022-08-18T05:27:22.835Z,36.80
2022-08-18T05:29:51.747Z,37.40
2022-08-18T05:32:30.596Z,38.10
2022-08-18T05:35:16.728Z,38.90
2022-08-18T05:37:47.450Z,39.60
2022-08-18T05:40:15.576Z,40.10
2022-08-18T05:42:46.174Z,40.20
2022-08-18T05:45:23.946Z,40.60
2022-08-18T05:47:51.693Z,41.10
2022-08-18T05:50:20.830Z,41.40
2022-08-18T05:53:01.458Z,41.40
2022-08-18T05:56:26.351Z,41.30
2022-08-18T05:58:55.554Z,41.00
2022-08-18T06:01:32.897Z,41.00
2022-08-18T06:04:06.734Z,41.40
2022-08-18T06:06:36.612Z,41.70
2022-08-18T06:09:19.945Z,41.60
2022-08-18T06:11:47.293Z,41.70
2022-08-18T06:14:14.555Z,41.60
2022-08-18T06:16:50.869Z,41.60
2022-08-18T06:19:36.844Z,41.80
2022-08-18T06:22:52.229Z,41.70
2022-08-18T06:25:31.168Z,41.30
2022-08-18T06:28:15.974Z,40.70
2022-08-18T06:30:49.479Z,40.10
2022-08-18T06:33:23.980Z,39.80
2022-08-18T06:36:03.187Z,40.20
2022-08-18T06:39:04.951Z,41.30
2022-08-18T06:41:50.013Z,42.50
2022-08-18T06:44:49.119Z,43.60
2022-08-18T06:47:40.986Z,44.30
2022-08-18T06:50:16.933Z,44.30
2022-08-18T06:52:56.329Z,43.50
2022-08-18T06:55:38.842Z,42.00
2022-08-18T06:58:27.140Z,40.90
2022-08-18T07:00:56.675Z,39.50
2022-08-18T07:03:42.254Z,38.80
2022-08-18T07:06:21.095Z,38.60
2022-08-18T07:08:50.515Z,38.10
2022-08-18T07:11:25.159Z,38.10
2022-08-18T07:14:15.418Z,37.70
2022-08-18T07:17:00.008Z,37.10
2022-08-18T07:19:33.271Z,36.20
2022-08-18T07:22:08.254Z,35.60
2022-08-18T07:24:49.228Z,35.20
2022-08-18T07:27:40.343Z,34.50
2022-08-18T07:30:25.534Z,34.20
2022-08-18T07:33:04.594Z,34.10
2022-08-18T07:35:46.212Z,34.10
2022-08-18T07:38:42.638Z,34.10
2022-08-18T07:41:11.373Z,33.80
2022-08-18T07:43:51.858Z,33.70
2022-08-18T07:46:47.866Z,33.50
2022-08-18T07:49:22.300Z,33.20
2022-08-18T07:52:44.402Z,33.30
2022-08-18T07:55:32.170Z,33.20
2022-08-18T07:58:18.404Z,32.90
2022-08-18T08:01:16.599Z,32.90
2022-08-18T08:04:04.921Z,33.00
2022-08-18T08:07:06.468Z,32.70
2022-08-18T08:09:52.161Z,32.80
2022-08-18T08:13:08.475Z,33.00
2022-08-18T08:15:53.806Z,32.90
2022-08-18T08:18:36.919Z,32.70
2022-08-18T08:21:19.938Z,32.60
2022-08-18T08:24:12.160Z,32.60
2022-08-18T08:26:50.142Z,32.60
2022-08-18T08:29:42.337Z,32.50
2022-08-18T08:32:11.902Z,32.40
2022-08-18T08:34:49.224Z,32.30
2022-08-18T08:38:23.014Z,32.20
2022-08-18T08:40:57.767Z,32.00
2022-08-18T08:43:32.258Z,32.10
2022-08-18T08:46:31.280Z,32.10
2022-08-18T08:49:16.049Z,32.00
2022-08-18T08:51:56.710Z,31.70
2022-08-18T08:54:30.812Z,31.60
2022-08-18T08:57:01.259Z,31.60
2022-08-18T08:59:28.694Z,31.60
2022-08-18T09:02:02.341Z,31.70
2022-08-18T09:05:09.619Z,31.80
2022-08-18T09:08:19.040Z,31.80
2022-08-18T09:11:02.802Z,31.80
2022-08-18T09:13:48.787Z,31.90
2022-08-18T09:17:02.601Z,31.70
2022-08-18T09:20:00.045Z,31.60
2022-08-18T09:22:48.671Z,31.70
2022-08-18T09:25:39.200Z,31.90
2022-08-18T09:28:29.651Z,31.80
2022-08-18T09:31:03.156Z,31.70
2022-08-18T09:33:45.730Z,31.70
2022-08-18T09:36:31.422Z,32.00
2022-08-18T09:39:31.199Z,32.00
2022-08-18T09:42:08.757Z,32.00
2022-08-18T09:44:47.719Z,31.90
2022-08-18T09:47:21.982Z,32.00
2022-08-18T09:50:06.189Z,32.00
2022-08-18T09:52:33.375Z,32.10
2022-08-18T09:55:16.637Z,32.20
2022-08-18T09:57:45.304Z,32.20
2022-08-18T10:00:13.757Z,32.20
2022-08-18T10:02:50.852Z,32.20
2022-08-18T10:05:31.103Z,32.10
2022-08-18T10:08:03.556Z,32.00
2022-08-18T10:13:55.672Z,32.10
2022-08-18T10:17:13.493Z,32.20
2022-08-18T10:19:41.417Z,32.30
2022-08-18T10:22:11.418Z,32.30
2022-08-18T10:24:52.140Z,32.40
2022-08-18T10:27:46.561Z,32.50
2022-08-18T10:30:34.498Z,32.80
2022-08-18T10:33:17.635Z,33.10
2022-08-18T10:36:03.088Z,33.30
2022-08-18T10:38:45.825Z,33.60
2022-08-18T10:41:36.405Z,33.80
2022-08-18T10:44:28.315Z,33.90
2022-08-18T10:46:59.817Z,33.90
2022-08-18T10:49:31.967Z,33.80
2022-08-18T10:52:26.871Z,33.60
2022-08-18T10:55:10.187Z,33.30
2022-08-18T10:57:53.722Z,33.20
2022-08-18T11:00:22.918Z,33.20
2022-08-18T11:03:01.891Z,33.10
2022-08-18T11:05:31.841Z,33.10
2022-08-18T11:08:04.787Z,33.20
2022-08-18T11:11:27.641Z,33.10
2022-08-18T11:14:11.869Z,33.10
2022-08-18T11:16:56.112Z,33.00
2022-08-18T11:19:24.471Z,32.90
2022-08-18T11:21:53.311Z,32.70
2022-08-18T11:24:31.782Z,32.80
2022-08-18T11:27:03.253Z,32.40
2022-08-18T11:29:41.631Z,32.50
2022-08-18T11:32:37.262Z,32.60
2022-08-18T11:38:13.595Z,32.80
2022-08-18T11:41:13.031Z,32.70
2022-08-18T11:43:43.120Z,32.70
2022-08-18T11:46:32.098Z,32.60
2022-08-18T11:49:13.749Z,32.40
2022-08-18T11:52:03.451Z,32.20
2022-08-18T11:54:50.533Z,32.00
2022-08-18T11:57:46.633Z,32.00
2022-08-18T12:00:46.068Z,31.90
2022-08-18T12:03:44.641Z,32.00
2022-08-18T12:10:07.844Z,31.90
2022-08-18T12:12:32.105Z,32.00
2022-08-18T12:15:24.747Z,31.90
2022-08-18T12:17:53.864Z,31.90
2022-08-18T12:20:22.118Z,31.80
2022-08-18T12:22:51.328Z,31.90
2022-08-18T12:25:24.750Z,31.90
2022-08-18T12:27:52.812Z,31.80
2022-08-18T12:30:20.214Z,31.90
2022-08-18T12:35:35.336Z,32.10
2022-08-18T12:38:11.290Z,32.20
2022-08-18T12:40:42.034Z,32.10
2022-08-18T12:43:09.272Z,31.90
2022-08-18T12:45:38.214Z,31.70
2022-08-18T12:48:07.789Z,31.60
2022-08-18T12:50:50.101Z,31.60
2022-08-18T12:53:29.645Z,31.50
2022-08-18T12:56:37.537Z,31.60
2022-08-18T12:59:07.643Z,31.80
2022-08-18T13:01:37.146Z,31.60
2022-08-18T13:06:59.853Z,31.40
2022-08-18T13:09:48.053Z,31.40
2022-08-18T13:12:19.695Z,31.30
2022-08-18T13:14:50.854Z,31.20
2022-08-18T13:17:30.465Z,31.10
2022-08-18T13:20:05.544Z,31.10
2022-08-18T13:22:33.587Z,30.90
2022-08-18T13:25:04.013Z,30.90
2022-08-18T13:27:35.747Z,31.00
2022-08-18T13:30:16.676Z,31.00
2022-08-18T13:32:59.017Z,30.90
2022-08-18T13:35:30.058Z,30.80
2022-08-18T13:38:17.101Z,30.70
2022-08-18T13:40:53.988Z,30.70
2022-08-18T13:43:29.527Z,30.50
2022-08-18T13:45:59.922Z,30.50
2022-08-18T13:48:29.839Z,30.40
2022-08-18T13:51:01.112Z,30.30
2022-08-18T13:53:29.963Z,30.40
2022-08-18T13:55:59.329Z,30.30
2022-08-18T13:58:28.039Z,30.30
2022-08-18T14:01:22.920Z,30.30
2022-08-18T14:03:50.241Z,30.30
2022-08-18T14:06:22.872Z,30.20
2022-08-18T14:08:53.299Z,30.20
2022-08-18T14:11:27.631Z,30.10
2022-08-18T14:14:01.906Z,30.10
2022-08-18T14:16:29.260Z,30.10
2022-08-18T14:19:17.711Z,30.10
2022-08-18T14:22:11.079Z,30.10
2022-08-18T14:24:59.699Z,30.20
2022-08-18T14:27:34.981Z,30.20
2022-08-18T14:30:09.204Z,30.20
2022-08-18T14:32:48.809Z,30.10
2022-08-18T14:35:26.982Z,29.90
2022-08-18T14:38:03.699Z,29.90
2022-08-18T14:40:33.437Z,29.90
2022-08-18T14:43:02.718Z,29.90
2022-08-18T14:45:35.660Z,29.90
2022-08-18T14:48:07.499Z,30.00
2022-08-18T14:50:40.281Z,30.10
2022-08-18T14:53:20.262Z,30.20
2022-08-18T14:55:54.745Z,30.20
2022-08-18T14:58:42.152Z,30.20
2022-08-18T15:01:11.640Z,30.20
2022-08-18T15:03:39.920Z,30.20
2022-08-18T15:06:08.318Z,30.20
2022-08-18T15:08:47.064Z,30.20
2022-08-18T15:11:14.287Z,30.20
2022-08-18T15:13:45.301Z,30.10
2022-08-18T15:16:14.819Z,30.10
2022-08-18T15:18:44.259Z,30.00
2022-08-18T15:21:35.601Z,29.90
2022-08-18T15:24:25.959Z,29.90
2022-08-18T15:26:57.634Z,29.80
2022-08-18T15:29:29.218Z,29.70
2022-08-18T15:32:02.158Z,29.70
2022-08-18T15:34:46.217Z,29.70
2022-08-18T15:37:19.563Z,29.70
2022-08-18T15:39:51.957Z,29.60
2022-08-18T15:42:23.956Z,29.50
2022-08-18T15:44:53.738Z,29.50
2022-08-18T15:47:25.143Z,29.50
2022-08-18T15:49:54.928Z,29.50
2022-08-18T15:52:25.815Z,29.50
2022-08-18T15:54:57.034Z,29.50
2022-08-18T15:57:39.686Z,29.40
2022-08-18T16:00:12.440Z,29.30
2022-08-18T16:02:44.725Z,29.30
2022-08-18T16:05:17.175Z,29.30
2022-08-18T16:07:45.281Z,29.20
2022-08-18T16:10:14.166Z,29.20
2022-08-18T16:12:45.966Z,29.20
2022-08-18T16:15:21.182Z,29.10
2022-08-18T16:17:50.607Z,29.10
2022-08-18T16:20:19.232Z,29.00
2022-08-18T16:22:47.776Z,28.90
2022-08-18T16:25:16.585Z,28.90
2022-08-18T16:27:44.566Z,28.90
2022-08-18T16:30:17.833Z,28.80
2022-08-18T16:32:45.558Z,28.80
2022-08-18T16:35:12.919Z,28.70
2022-08-18T16:37:40.179Z,28.70
2022-08-18T16:40:08.676Z,28.60
2022-08-18T16:42:36.696Z,28.60
2022-08-18T16:45:07.859Z,28.50
2022-08-18T16:47:41.138Z,28.50
2022-08-18T16:50:11.268Z,28.40
2022-08-18T16:52:39.858Z,28.40
2022-08-18T16:55:09.295Z,28.30
2022-08-18T16:57:57.946Z,28.30
2022-08-18T17:00:44.749Z,28.20
2022-08-18T17:03:30.724Z,28.10
2022-08-18T17:06:13.971Z,28.10
2022-08-18T17:08:42.475Z,28.00
2022-08-18T17:11:13.896Z,28.00
2022-08-18T17:13:42.529Z,27.90
2022-08-18T17:16:11.146Z,27.90
2022-08-18T17:18:39.449Z,27.80
2022-08-18T17:21:08.288Z,27.70
2022-08-18T17:23:38.998Z,27.70
2022-08-18T17:26:26.139Z,27.60
2022-08-18T17:29:03.359Z,27.50
2022-08-18T17:31:32.265Z,27.50
2022-08-18T17:34:07.101Z,27.40
2022-08-18T17:36:53.912Z,27.40
2022-08-18T17:39:27.478Z,27.30
2022-08-18T17:42:13.541Z,27.20
2022-08-18T17:44:52.029Z,27.10
2022-08-18T17:47:25.855Z,27.00
2022-08-18T17:50:26.684Z,27.00
2022-08-18T17:53:01.570Z,26.90
2022-08-18T17:55:39.899Z,26.80
2022-08-18T17:58:15.545Z,26.80
2022-08-18T18:00:42.679Z,26.70
2022-08-18T18:03:13.326Z,26.60
2022-08-18T18:05:49.998Z,26.60
2022-08-18T18:08:17.760Z,26.50
2022-08-18T18:11:05.418Z,26.30
2022-08-18T18:13:33.927Z,26.40
2022-08-18T18:16:19.825Z,26.30
2022-08-18T18:18:59.848Z,26.20
2022-08-18T18:21:55.368Z,26.20
2022-08-18T18:24:23.629Z,26.10
2022-08-18T18:26:52.057Z,26.00
2022-08-18T18:29:37.742Z,25.90
2022-08-18T18:32:06.830Z,25.80
2022-08-18T18:34:40.953Z,25.80
2022-08-18T18:37:26.274Z,25.70
2022-08-18T18:39:59.858Z,25.60
2022-08-18T18:42:33.099Z,25.60
2022-08-18T18:45:09.450Z,25.50
2022-08-18T18:48:05.511Z,25.50
2022-08-18T18:51:10.814Z,25.40
2022-08-18T18:53:52.613Z,25.30
2022-08-18T18:56:53.900Z,25.20
2022-08-18T19:00:02.364Z,25.20
2022-08-18T19:03:07.389Z,25.10
2022-08-18T19:05:50.228Z,25.10
2022-08-18T19:08:39.612Z,25.00
2022-08-18T19:11:14.337Z,25.00
2022-08-18T19:13:55.115Z,24.90
2022-08-18T19:16:30.633Z,24.90
2022-08-18T19:19:37.862Z,24.90
2022-08-18T19:22:08.286Z,24.80
2022-08-18T19:24:43.308Z,24.80
2022-08-18T19:27:23.575Z,24.70
2022-08-18T19:29:55.242Z,24.70
2022-08-18T19:32:31.301Z,24.60
2022-08-18T19:35:00.279Z,24.60
2022-08-18T19:37:34.708Z,24.50
2022-08-18T19:40:54.456Z,24.50
2022-08-18T19:43:32.879Z,24.50
2022-08-18T19:46:23.205Z,24.40
2022-08-18T19:49:03.283Z,24.40
2022-08-18T19:51:37.778Z,24.40
2022-08-18T19:54:26.370Z,24.30
2022-08-18T19:57:16.204Z,24.20
2022-08-18T20:00:12.674Z,24.20
2022-08-18T20:03:04.013Z,24.20
2022-08-18T20:05:39.057Z,24.20
2022-08-18T20:08:39.678Z,24.10
2022-08-18T20:11:15.832Z,24.10
2022-08-18T20:13:45.492Z,24.00
2022-08-18T20:16:14.979Z,24.00
2022-08-18T20:18:49.035Z,24.00
2022-08-18T20:21:16.637Z,24.00
2022-08-18T20:24:18.418Z,23.90
2022-08-18T20:26:50.029Z,23.90
2022-08-18T20:29:36.292Z,23.80
2022-08-18T20:32:07.189Z,23.80
2022-08-18T20:34:36.040Z,23.80
2022-08-18T20:37:08.373Z,23.80
2022-08-18T20:39:56.399Z,23.70
2022-08-18T20:42:24.472Z,23.70
2022-08-18T20:45:28.157Z,23.70
2022-08-18T20:48:01.466Z,23.60
2022-08-18T20:50:54.276Z,23.60
2022-08-18T20:53:41.919Z,23.50
2022-08-18T20:56:32.282Z,23.50
2022-08-18T20:59:21.064Z,23.40
2022-08-18T21:02:02.712Z,23.40
2022-08-18T21:04:51.076Z,23.30
2022-08-18T21:07:36.666Z,23.30
2022-08-18T21:10:18.673Z,23.30
2022-08-18T21:12:53.713Z,23.30
2022-08-18T21:15:35.560Z,23.20
2022-08-18T21:18:24.103Z,23.20
2022-08-18T21:20:53.886Z,23.10
2022-08-18T21:23:30.775Z,23.10
2022-08-18T21:26:29.132Z,23.10
2022-08-18T21:29:02.087Z,23.00
2022-08-18T21:31:43.748Z,23.00
2022-08-18T21:34:18.587Z,23.00
2022-08-18T21:36:51.988Z,23.00
2022-08-18T21:39:20.958Z,23.00
2022-08-18T21:41:53.878Z,23.00
2022-08-18T21:44:38.454Z,23.10
2022-08-18T21:47:09.656Z,23.10
2022-08-18T21:49:37.810Z,23.00
2022-08-18T21:52:05.317Z,23.00
2022-08-18T21:54:34.372Z,23.00
2022-08-18T21:57:26.479Z,22.90
2022-08-18T22:00:24.001Z,22.90
2022-08-18T22:03:08.888Z,22.90
2022-08-18T22:05:58.410Z,22.90
2022-08-18T22:08:30.730Z,22.90
2022-08-18T22:11:57.696Z,22.80
2022-08-18T22:14:28.214Z,22.80
2022-08-18T22:17:32.669Z,22.70
2022-08-18T22:20:36.703Z,22.60
2022-08-18T22:23:28.944Z,22.60
2022-08-18T22:26:13.614Z,22.60
2022-08-18T22:28:43.718Z,22.50
2022-08-18T22:31:10.846Z,22.50
2022-08-18T22:33:37.928Z,22.40
2022-08-18T22:36:05.372Z,22.40
2022-08-18T22:38:32.472Z,22.40
2022-08-18T22:41:00.358Z,22.30
2022-08-18T22:43:27.899Z,22.30
2022-08-18T22:45:55.122Z,22.30
2022-08-18T22:48:22.267Z,22.30
2022-08-18T22:50:49.624Z,22.30
2022-08-18T22:53:26.404Z,22.30
2022-08-18T22:55:54.244Z,22.30
2022-08-18T22:58:28.031Z,22.20
2022-08-18T23:01:01.076Z,22.30
2022-08-18T23:03:40.756Z,22.30
2022-08-18T23:06:10.321Z,22.30
2022-08-18T23:08:54.831Z,22.20
2022-08-18T23:11:28.823Z,22.20
2022-08-18T23:13:56.744Z,22.10
2022-08-18T23:16:31.899Z,22.10
2022-08-18T23:19:03.586Z,22.10
2022-08-18T23:21:34.394Z,22.10
2022-08-18T23:24:06.770Z,22.10
2022-08-18T23:26:34.452Z,22.00
2022-08-18T23:29:02.322Z,22.00
2022-08-18T23:31:30.334Z,22.00
2022-08-18T23:34:00.693Z,21.90
2022-08-18T23:36:29.608Z,21.90
2022-08-18T23:38:57.007Z,21.90
2022-08-18T23:41:25.186Z,21.80
2022-08-18T23:43:52.668Z,21.80
2022-08-18T23:46:28.117Z,21.80
2022-08-18T23:48:57.350Z,21.80
2022-08-18T23:51:26.581Z,21.90
2022-08-18T23:53:56.871Z,21.90
2022-08-18T23:56:28.195Z,21.90
2022-08-18T23:58:56.921Z,22.00
